Time;durP1;ratioP1;P1;durP2;ratioP2;P2;SDS_P1;SDS_P2;PMS_P1;PMS_P2;Temp;Humidity;BMP_temperature;BMP_pressure;BME280_temperature;BME280_humidity;BME280_pressure;Samples;Min_cycle;Max_cycle;Signal;HPM_P1;HPM_P2
2021/01/05 00:00:12;;;;;;;24.88;12.25;;;2.00;99.80;;;;;;4937848;28;20310;-88
2021/01/05 00:02:39;;;;;;;24.27;11.07;;;2.00;99.80;;;;;;4956076;28;20228;-87
2021/01/05 00:05:09;;;;;;;24.60;9.98;;;2.00;99.80;;;;;;4948339;28;20248;-86
2021/01/05 00:07:36;;;;;;;24.30;11.45;;;2.10;99.80;;;;;;4949480;28;21003;-86
2021/01/05 00:10:05;;;;;;;26.30;11.48;;;2.10;99.80;;;;;;4942822;28;20802;-86
2021/01/05 00:12:32;;;;;;;23.85;11.05;;;2.00;99.80;;;;;;4925829;28;20282;-88
2021/01/05 00:14:59;;;;;;;22.67;9.55;;;2.00;99.80;;;;;;4933533;28;20320;-87
2021/01/05 00:17:26;;;;;;;22.92;11.75;;;2.00;99.80;;;;;;4934641;28;20233;-86
2021/01/05 00:19:54;;;;;;;19.58;10.43;;;2.00;99.80;;;;;;4940382;28;20224;-87
2021/01/05 00:22:22;;;;;;;25.70;11.73;;;2.00;99.80;;;;;;4937183;28;20737;-88
2021/01/05 00:24:49;;;;;;;21.42;9.70;;;2.00;99.80;;;;;;4936780;28;20225;-89
2021/01/05 00:27:16;;;;;;;25.65;10.43;;;2.00;99.80;;;;;;4932260;28;20225;-86
2021/01/05 00:29:43;;;;;;;24.10;9.73;;;2.00;99.80;;;;;;4932225;28;20234;-89
2021/01/05 00:32:14;;;;;;;21.50;11.75;;;2.00;99.80;;;;;;4931486;28;20659;-85
2021/01/05 00:34:42;;;;;;;32.95;11.20;;;2.00;99.80;;;;;;4947092;28;20236;-86
2021/01/05 00:37:10;;;;;;;22.27;9.77;;;2.00;99.80;;;;;;4970883;23;20582;-87
2021/01/05 00:39:38;;;;;;;23.80;11.13;;;1.90;99.80;;;;;;4951010;28;20232;-87
2021/01/05 00:42:05;;;;;;;20.63;10.07;;;1.90;99.80;;;;;;4931395;28;20744;-86
2021/01/05 00:44:32;;;;;;;25.08;10.95;;;1.90;99.80;;;;;;4926589;28;20684;-87
2021/01/05 00:46:59;;;;;;;20.10;9.95;;;1.90;99.80;;;;;;4947411;28;20234;-88
2021/01/05 00:49:27;;;;;;;22.45;9.93;;;1.90;99.80;;;;;;4947681;28;20228;-87
2021/01/05 00:51:54;;;;;;;22.52;10.00;;;2.00;99.80;;;;;;4942726;28;20664;-88
2021/01/05 00:54:22;;;;;;;25.90;10.93;;;2.00;99.80;;;;;;4935634;28;20239;-87
2021/01/05 00:57:01;;;;;;;26.67;10.68;;;2.00;99.80;;;;;;4932751;28;20375;-87
2021/01/05 00:59:28;;;;;;;26.63;12.00;;;2.00;99.80;;;;;;4922680;28;20241;-86
2021/01/05 01:01:56;;;;;;;27.23;11.13;;;2.00;99.80;;;;;;4934224;28;20310;-86
2021/01/05 01:04:23;;;;;;;26.90;9.90;;;1.90;99.80;;;;;;4956758;28;20228;-86
2021/01/05 01:06:50;;;;;;;22.55;11.55;;;1.90;99.80;;;;;;4948968;28;20307;-86
2021/01/05 01:09:18;;;;;;;22.33;11.07;;;1.90;99.80;;;;;;4948214;28;20224;-86
2021/01/05 01:12:00;;;;;;;21.02;10.75;;;1.80;99.80;;;;;;4956104;28;20234;-87
2021/01/05 01:14:28;;;;;;;24.92;11.15;;;1.90;99.80;;;;;;4933482;28;20296;-87
2021/01/05 01:16:55;;;;;;;23.33;11.63;;;1.90;99.80;;;;;;4939304;28;20232;-87
2021/01/05 01:19:23;;;;;;;27.65;10.65;;;1.90;99.80;;;;;;4954969;28;20259;-87
2021/01/05 01:21:52;;;;;;;20.85;11.00;;;1.90;99.80;;;;;;4932225;28;20239;-87
2021/01/05 01:24:20;;;;;;;17.20;9.77;;;1.90;99.80;;;;;;4942651;28;20232;-87
2021/01/05 01:26:47;;;;;;;25.88;11.32;;;1.80;99.80;;;;;;4925919;28;20232;-87
2021/01/05 01:29:19;;;;;;;26.35;11.45;;;1.80;99.80;;;;;;4936802;28;20235;-87
2021/01/05 01:31:47;;;;;;;21.58;10.48;;;1.80;99.80;;;;;;4933581;28;20714;-87
2021/01/05 01:34:16;;;;;;;24.95;11.30;;;1.80;99.80;;;;;;4924559;28;21147;-87
2021/01/05 01:36:43;;;;;;;23.10;10.82;;;1.80;99.80;;;;;;4929753;28;20227;-87
2021/01/05 01:39:10;;;;;;;26.52;12.10;;;1.80;99.80;;;;;;4920150;28;20240;-87
2021/01/05 01:41:37;;;;;;;20.88;10.70;;;1.80;99.80;;;;;;4928949;28;20224;-86
2021/01/05 01:44:05;;;;;;;23.52;9.82;;;1.80;99.80;;;;;;4933485;28;20228;-87
2021/01/05 01:46:35;;;;;;;23.83;11.95;;;1.80;99.80;;;;;;4930627;28;20253;-88
2021/01/05 01:49:02;;;;;;;26.65;12.52;;;1.80;99.80;;;;;;4945668;28;20295;-87
2021/01/05 01:51:33;;;;;;;24.38;10.65;;;1.80;99.80;;;;;;4942424;28;20278;-86
2021/01/05 01:54:24;;;;;;;24.20;10.80;;;1.80;99.80;;;;;;4942618;28;20888;-87
2021/01/05 01:57:17;;;;;;;24.33;10.57;;;1.80;99.80;;;;;;4941348;28;20695;-87
2021/01/05 02:00:03;;;;;;;21.58;9.60;;;1.90;99.80;;;;;;4925479;28;20227;-87
2021/01/05 02:02:43;;;;;;;18.70;9.93;;;1.90;99.80;;;;;;4931056;28;20322;-87
2021/01/05 02:05:14;;;;;;;19.73;9.93;;;2.00;99.80;;;;;;4938046;28;20228;-88
2021/01/05 02:07:53;;;;;;;19.10;9.77;;;2.00;99.80;;;;;;4919687;28;20225;-88
2021/01/05 02:10:39;;;;;;;20.80;9.93;;;2.00;99.80;;;;;;4901706;28;20809;-88
2021/01/05 02:13:20;;;;;;;21.60;9.52;;;2.00;99.80;;;;;;4937309;28;20224;-88
2021/01/05 02:15:59;;;;;;;21.75;9.88;;;2.00;99.80;;;;;;4943053;28;20226;-87
2021/01/05 02:18:37;;;;;;;24.05;10.18;;;2.00;99.80;;;;;;4949753;28;20235;-87
2021/01/05 02:21:10;;;;;;;18.08;9.05;;;1.90;99.80;;;;;;4949234;28;20235;-87
2021/01/05 02:23:52;;;;;;;21.08;9.88;;;1.90;99.80;;;;;;4950980;28;20599;-87
2021/01/05 02:26:25;;;;;;;21.42;10.45;;;1.90;99.80;;;;;;4949630;28;20311;-86
2021/01/05 02:28:56;;;;;;;19.85;9.18;;;1.90;99.80;;;;;;4936367;28;20859;-88
2021/01/05 02:31:40;;;;;;;18.83;10.35;;;1.90;99.80;;;;;;4924967;28;20259;-88
2021/01/05 02:34:22;;;;;;;23.35;12.10;;;1.90;99.80;;;;;;4959026;28;20573;-87
2021/01/05 02:37:10;;;;;;;19.95;9.63;;;1.90;99.80;;;;;;4934386;28;20585;-87
2021/01/05 02:40:10;;;;;;;18.30;9.45;;;1.80;99.80;;;;;;4912080;28;20311;-88
2021/01/05 02:42:57;;;;;;;19.15;10.40;;;1.90;99.80;;;;;;4887976;28;20228;-87
2021/01/05 02:45:27;;;;;;;18.80;9.55;;;1.90;99.80;;;;;;4915175;28;20820;-88
2021/01/05 02:48:23;;;;;;;16.90;9.38;;;1.90;99.80;;;;;;4953149;28;20315;-88
2021/01/05 02:51:25;;;;;;;19.70;8.63;;;1.90;99.80;;;;;;4949962;28;20239;-88
2021/01/05 02:54:41;;;;;;;26.42;9.85;;;1.90;99.80;;;;;;4943013;28;20247;-87
2021/01/05 02:57:20;;;;;;;16.50;9.10;;;1.90;99.80;;;;;;4926146;28;20606;-88
2021/01/05 03:00:27;;;;;;;23.33;9.73;;;2.00;99.80;;;;;;4930073;28;20788;-87
2021/01/05 03:03:25;;;;;;;18.17;9.02;;;2.00;99.80;;;;;;4943879;28;20231;-88
2021/01/05 03:06:25;;;;;;;16.83;7.47;;;2.00;99.80;;;;;;4949754;28;20207;-88
2021/01/05 03:09:34;;;;;;;15.68;8.93;;;1.90;99.80;;;;;;4953537;28;20287;-88
2021/01/05 03:12:16;;;;;;;18.85;9.07;;;2.00;99.80;;;;;;4953867;28;20319;-88
2021/01/05 03:14:56;;;;;;;18.35;7.90;;;2.00;99.80;;;;;;4946422;28;20215;-88
2021/01/05 03:17:30;;;;;;;16.70;7.22;;;2.00;99.80;;;;;;4933570;28;20760;-88
2021/01/05 03:20:11;;;;;;;12.60;7.88;;;2.00;99.80;;;;;;4932766;28;20222;-87
2021/01/05 03:22:51;;;;;;;16.27;8.02;;;2.00;99.80;;;;;;4928289;28;20286;-88
2021/01/05 03:25:20;;;;;;;14.73;7.60;;;2.00;99.80;;;;;;4928509;28;20232;-88
2021/01/05 03:27:50;;;;;;;18.85;9.27;;;2.00;99.80;;;;;;4931486;28;20769;-88
2021/01/05 03:30:25;;;;;;;15.27;7.97;;;1.90;99.80;;;;;;4955438;28;20630;-88
2021/01/05 03:32:53;;;;;;;18.15;8.45;;;2.00;99.80;;;;;;4940796;28;20227;-88
2021/01/05 03:35:20;;;;;;;16.15;8.65;;;2.00;99.80;;;;;;4946976;28;20275;-87
2021/01/05 03:37:47;;;;;;;17.42;8.55;;;1.90;99.80;;;;;;4951048;28;20237;-87
2021/01/05 03:40:15;;;;;;;21.77;7.97;;;1.90;99.80;;;;;;4944456;28;20779;-88
2021/01/05 03:42:42;;;;;;;18.15;8.63;;;1.90;99.80;;;;;;4908753;28;20304;-88
2021/01/05 03:45:15;;;;;;;19.38;8.15;;;1.90;99.80;;;;;;4932816;28;20661;-87
2021/01/05 03:47:42;;;;;;;13.52;7.43;;;1.90;99.80;;;;;;4933333;28;20235;-87
2021/01/05 03:50:11;;;;;;;18.05;9.18;;;1.90;99.80;;;;;;4942923;28;20266;-87
2021/01/05 03:52:38;;;;;;;16.13;7.93;;;1.90;99.80;;;;;;4928028;28;20731;-85
2021/01/05 03:55:07;;;;;;;14.43;7.60;;;1.80;99.80;;;;;;4921992;28;21174;-88
2021/01/05 03:57:34;;;;;;;12.77;8.00;;;1.80;99.80;;;;;;4937917;28;20235;-87
2021/01/05 04:00:00;;;;;;;18.83;8.70;;;1.80;99.80;;;;;;4918145;28;20226;-86
2021/01/05 04:02:28;;;;;;;15.70;7.78;;;1.90;99.80;;;;;;4936060;28;20282;-88
2021/01/05 04:04:55;;;;;;;18.65;8.57;;;2.00;99.80;;;;;;4948917;28;20251;-87
2021/01/05 04:07:23;;;;;;;17.20;8.93;;;2.00;99.80;;;;;;4944042;28;20750;-88
2021/01/05 04:09:50;;;;;;;20.05;9.68;;;2.00;99.80;;;;;;4943871;28;20224;-88
2021/01/05 04:12:18;;;;;;;18.70;9.45;;;2.00;99.80;;;;;;4933857;28;20344;-87
2021/01/05 04:14:45;;;;;;;21.58;8.75;;;2.00;99.80;;;;;;4923809;28;20231;-87
2021/01/05 04:17:12;;;;;;;15.57;8.48;;;2.00;99.80;;;;;;4923512;28;20236;-88
2021/01/05 04:19:39;;;;;;;17.73;9.18;;;2.00;99.80;;;;;;4944513;28;20224;-88
2021/01/05 04:22:06;;;;;;;21.67;9.85;;;2.00;99.80;;;;;;4935181;28;20228;-87
2021/01/05 04:24:34;;;;;;;11.75;7.53;;;2.00;99.80;;;;;;4918776;28;20231;-87
2021/01/05 04:27:01;;;;;;;20.77;9.00;;;2.00;99.80;;;;;;4931283;28;20302;-88
2021/01/05 04:29:28;;;;;;;20.13;9.63;;;2.00;99.80;;;;;;4946593;28;20319;-88
2021/01/05 04:31:55;;;;;;;25.05;10.00;;;2.00;99.80;;;;;;4942717;28;20232;-88
2021/01/05 04:34:22;;;;;;;18.30;9.30;;;2.10;99.80;;;;;;4947834;28;20232;-88
2021/01/05 04:36:49;;;;;;;17.55;8.90;;;2.10;99.80;;;;;;4941939;28;20245;-88
2021/01/05 04:39:16;;;;;;;23.95;9.40;;;2.10;99.80;;;;;;4944277;28;20718;-88
2021/01/05 04:41:51;;;;;;;19.83;9.70;;;2.10;99.80;;;;;;4939998;28;20313;-88
2021/01/05 04:44:18;;;;;;;21.85;10.88;;;2.10;99.80;;;;;;4936954;28;20229;-87
2021/01/05 04:47:12;;;;;;;22.75;10.68;;;2.10;99.80;;;;;;4914366;28;20304;-88
2021/01/05 04:50:02;;;;;;;21.23;9.93;;;2.20;99.80;;;;;;4927364;28;20286;-86
2021/01/05 04:52:36;;;;;;;24.30;10.60;;;2.20;99.80;;;;;;4938100;28;20238;-88
2021/01/05 04:55:07;;;;;;;22.08;10.25;;;2.20;99.80;;;;;;4937713;28;20739;-88
2021/01/05 04:57:36;;;;;;;22.20;9.80;;;2.20;99.80;;;;;;4928327;28;20242;-88
2021/01/05 05:00:17;;;;;;;21.70;9.50;;;2.30;99.80;;;;;;4923846;28;20236;-87
2021/01/05 05:02:51;;;;;;;17.42;9.32;;;2.20;99.80;;;;;;4937215;28;20666;-88
2021/01/05 05:06:00;;;;;;;21.90;10.70;;;2.20;99.80;;;;;;4913813;28;20236;-88
2021/01/05 05:08:42;;;;;;;22.92;10.98;;;2.20;99.80;;;;;;4885345;28;20699;-88
2021/01/05 05:11:15;;;;;;;24.17;10.15;;;2.20;99.80;;;;;;4917761;28;20235;-88
2021/01/05 05:13:51;;;;;;;21.38;9.98;;;2.20;99.80;;;;;;4940057;28;20233;-87
2021/01/05 05:16:40;;;;;;;25.77;12.43;;;2.20;99.80;;;;;;4888820;28;20320;-88
2021/01/05 05:19:21;;;;;;;19.10;9.48;;;2.30;99.80;;;;;;4948836;28;20228;-88
2021/01/05 05:21:52;;;;;;;21.33;9.65;;;2.20;99.80;;;;;;4939771;28;20228;-87
2021/01/05 05:24:34;;;;;;;20.58;10.90;;;2.20;99.80;;;;;;4945555;28;20228;-86
2021/01/05 05:27:10;;;;;;;21.40;11.00;;;2.10;99.80;;;;;;4950598;28;20250;-87
2021/01/05 05:29:43;;;;;;;23.50;10.20;;;2.20;99.80;;;;;;4910316;28;20274;-87
2021/01/05 05:32:16;;;;;;;23.08;10.57;;;2.20;99.80;;;;;;4933024;28;20252;-88
2021/01/05 05:34:53;;;;;;;21.10;10.00;;;2.20;99.80;;;;;;4957613;28;20266;-86
2021/01/05 05:37:32;;;;;;;23.95;11.00;;;2.20;99.80;;;;;;4912360;28;20233;-87
2021/01/05 05:40:13;;;;;;;26.95;12.25;;;2.20;99.80;;;;;;4935186;28;20234;-86
2021/01/05 05:42:58;;;;;;;23.52;11.48;;;2.20;99.80;;;;;;4917068;28;20228;-88
2021/01/05 05:45:30;;;;;;;22.27;9.93;;;2.20;99.80;;;;;;4930085;28;20228;-87
2021/01/05 05:48:04;;;;;;;20.98;11.60;;;2.20;99.80;;;;;;4928305;28;20743;-87
2021/01/05 05:50:40;;;;;;;22.42;10.75;;;2.20;99.80;;;;;;4934903;28;20235;-88
2021/01/05 05:53:12;;;;;;;26.92;11.73;;;2.10;99.80;;;;;;4949337;28;20239;-86
2021/01/05 05:55:46;;;;;;;24.10;10.73;;;2.10;99.80;;;;;;4941822;28;20631;-87
2021/01/05 05:58:18;;;;;;;24.17;11.60;;;2.00;99.80;;;;;;4935434;28;20766;-87
2021/01/05 06:00:47;;;;;;;27.05;11.32;;;2.00;99.80;;;;;;4925866;28;20231;-88
2021/01/05 06:03:17;;;;;;;35.90;13.23;;;2.00;99.80;;;;;;4955551;28;20316;-87
2021/01/05 06:05:44;;;;;;;26.50;11.30;;;2.10;99.80;;;;;;4938642;28;20227;-87
2021/01/05 06:08:13;;;;;;;26.58;12.20;;;2.00;99.80;;;;;;4922503;28;20244;-88
2021/01/05 06:10:41;;;;;;;28.70;12.32;;;2.00;99.80;;;;;;4922630;28;20232;-87
2021/01/05 06:13:08;;;;;;;22.63;11.68;;;2.00;99.80;;;;;;4936318;28;20240;-88
2021/01/05 06:15:35;;;;;;;23.42;11.20;;;2.00;99.80;;;;;;4924600;28;20231;-88
2021/01/05 06:18:05;;;;;;;25.33;13.32;;;2.00;99.80;;;;;;4953769;28;20694;-87
2021/01/05 06:20:32;;;;;;;30.15;13.30;;;2.00;99.80;;;;;;4946524;28;20283;-87
2021/01/05 06:22:59;;;;;;;32.65;12.57;;;2.10;99.80;;;;;;4950348;28;20339;-87
2021/01/05 06:25:27;;;;;;;28.23;12.38;;;2.00;99.80;;;;;;4937015;28;20247;-87
2021/01/05 06:27:54;;;;;;;18.98;11.35;;;2.00;99.80;;;;;;4940675;28;20311;-88
2021/01/05 06:30:22;;;;;;;26.65;12.30;;;2.00;99.80;;;;;;4934003;28;20235;-88
2021/01/05 06:32:49;;;;;;;29.52;13.05;;;2.00;99.80;;;;;;4946473;28;20249;-87
2021/01/05 06:35:19;;;;;;;25.48;11.38;;;2.10;99.80;;;;;;4952560;28;20233;-88
2021/01/05 06:37:49;;;;;;;29.58;12.20;;;2.00;99.80;;;;;;4935291;28;20265;-86
2021/01/05 06:40:18;;;;;;;31.58;13.07;;;2.00;99.80;;;;;;4926969;28;20315;-87
2021/01/05 06:42:45;;;;;;;31.33;12.77;;;2.00;99.80;;;;;;4924569;28;20232;-87
2021/01/05 06:45:17;;;;;;;29.85;12.82;;;1.90;99.80;;;;;;4915699;28;20340;-87
2021/01/05 06:47:44;;;;;;;29.17;14.07;;;2.00;99.80;;;;;;4938498;28;20282;-88
2021/01/05 06:50:12;;;;;;;27.27;12.10;;;2.00;99.80;;;;;;4934432;28;20258;-87
2021/01/05 06:52:40;;;;;;;28.05;12.77;;;2.00;99.80;;;;;;4912996;28;20255;-87
2021/01/05 06:55:08;;;;;;;26.08;12.40;;;2.10;99.80;;;;;;4930461;28;20237;-87
2021/01/05 06:57:35;;;;;;;29.40;12.27;;;2.10;99.80;;;;;;4933639;28;20713;-87
2021/01/05 07:00:05;;;;;;;27.65;13.65;;;2.00;99.80;;;;;;4925230;28;20303;-88
2021/01/05 07:02:32;;;;;;;28.38;12.80;;;2.00;99.80;;;;;;4935980;28;20491;-88
2021/01/05 07:04:59;;;;;;;28.48;13.13;;;2.00;99.80;;;;;;4949333;28;20811;-88
2021/01/05 07:07:26;;;;;;;26.63;12.60;;;2.00;99.80;;;;;;4946445;28;20240;-88
2021/01/05 07:09:54;;;;;;;26.00;12.98;;;2.00;99.80;;;;;;4940269;28;20231;-87
2021/01/05 07:12:21;;;;;;;37.53;14.00;;;2.00;99.80;;;;;;4935426;28;20242;-88
2021/01/05 07:14:48;;;;;;;25.45;12.95;;;2.10;99.80;;;;;;4922223;28;20226;-88
2021/01/05 07:17:15;;;;;;;32.80;13.23;;;2.20;99.80;;;;;;4936725;28;20732;-88
2021/01/05 07:19:43;;;;;;;31.73;14.50;;;2.20;99.80;;;;;;4936686;28;20262;-88
2021/01/05 07:22:10;;;;;;;29.73;14.63;;;2.20;99.80;;;;;;4918827;28;20315;-88
2021/01/05 07:24:37;;;;;;;32.90;14.93;;;2.30;99.80;;;;;;4921996;28;20234;-89
2021/01/05 07:27:06;;;;;;;32.42;12.95;;;2.30;99.80;;;;;;4947563;28;20243;-86
2021/01/05 07:29:33;;;;;;;25.55;13.50;;;2.20;99.80;;;;;;4926787;28;20232;-89
2021/01/05 07:32:00;;;;;;;31.33;13.30;;;2.20;99.80;;;;;;4930819;28;20311;-87
2021/01/05 07:34:27;;;;;;;30.13;12.50;;;2.20;99.80;;;;;;4955573;28;20224;-88
2021/01/05 07:36:58;;;;;;;29.55;13.90;;;2.10;99.80;;;;;;4942858;28;20232;-88
2021/01/05 07:39:27;;;;;;;27.83;11.98;;;2.10;99.80;;;;;;4939101;28;20236;-88
2021/01/05 07:45:03;;;;;;;38.58;13.35;;;2.10;99.80;;;;;;5092592;27;20601;-88
2021/01/05 07:47:34;;;;;;;30.80;12.90;;;2.20;99.80;;;;;;5070448;28;20225;-86
2021/01/05 07:50:02;;;;;;;33.10;14.48;;;2.20;99.80;;;;;;5069679;28;20577;-88
2021/01/05 07:52:35;;;;;;;29.63;13.45;;;2.20;99.80;;;;;;5066576;28;20234;-87
2021/01/05 07:55:05;;;;;;;34.33;14.73;;;2.20;99.80;;;;;;5047192;28;20263;-88
2021/01/05 07:57:32;;;;;;;31.27;14.80;;;2.30;99.80;;;;;;5057016;28;20310;-88
2021/01/05 07:59:59;;;;;;;23.88;12.20;;;2.30;99.80;;;;;;5046069;28;20766;-88
2021/01/05 08:02:26;;;;;;;28.48;13.73;;;2.30;99.80;;;;;;5066159;28;20227;-88
2021/01/05 08:04:53;;;;;;;28.85;14.05;;;2.30;99.80;;;;;;5076425;28;20223;-89
2021/01/05 08:07:21;;;;;;;27.58;13.15;;;2.30;99.80;;;;;;5072455;28;20644;-88
2021/01/05 08:09:48;;;;;;;31.95;13.90;;;2.30;99.80;;;;;;5070161;28;20918;-88
2021/01/05 08:12:16;;;;;;;39.13;13.30;;;2.30;99.80;;;;;;5068810;28;20235;-89
2021/01/05 08:14:44;;;;;;;31.40;13.95;;;2.30;99.80;;;;;;5045194;28;20640;-87
2021/01/05 08:17:11;;;;;;;31.08;12.52;;;2.30;99.80;;;;;;5067580;28;20237;-88
2021/01/05 08:19:42;;;;;;;30.48;12.07;;;2.30;99.80;;;;;;5076831;28;20320;-88
2021/01/05 08:22:09;;;;;;;27.73;12.75;;;2.40;99.80;;;;;;5061590;28;20226;-89
2021/01/05 08:24:37;;;;;;;30.95;14.15;;;2.40;99.80;;;;;;5048157;28;20228;-88
2021/01/05 08:27:05;;;;;;;27.15;12.88;;;2.40;99.80;;;;;;5060001;28;20225;-88
2021/01/05 08:29:32;;;;;;;30.73;14.93;;;2.40;99.80;;;;;;5036345;28;20634;-88
2021/01/05 08:31:59;;;;;;;31.75;14.32;;;2.40;99.80;;;;;;5045727;28;20231;-88
2021/01/05 08:34:26;;;;;;;30.33;12.18;;;2.40;99.80;;;;;;5041552;28;20293;-87
2021/01/05 08:36:54;;;;;;;34.28;14.18;;;2.40;99.80;;;;;;5052151;28;20663;-88
2021/01/05 08:39:21;;;;;;;29.42;12.55;;;2.40;99.80;;;;;;5043492;28;20234;-88
2021/01/05 08:41:52;;;;;;;30.10;12.68;;;2.40;99.80;;;;;;5040181;28;21932;-88
2021/01/05 08:44:20;;;;;;;25.33;12.23;;;2.40;99.80;;;;;;5053846;28;20886;-87
2021/01/05 08:46:47;;;;;;;32.15;14.02;;;2.40;99.80;;;;;;5053136;27;20633;-87
2021/01/05 08:49:14;;;;;;;26.10;12.02;;;2.40;99.80;;;;;;5071472;28;20726;-88
2021/01/05 08:51:41;;;;;;;27.67;12.52;;;2.40;99.80;;;;;;5077103;28;20231;-88
2021/01/05 08:54:10;;;;;;;29.33;12.70;;;2.50;99.80;;;;;;5058659;28;20224;-87
2021/01/05 08:56:41;;;;;;;27.15;13.85;;;2.50;99.80;;;;;;5040056;28;20228;-88
2021/01/05 08:59:08;;;;;;;29.23;14.00;;;2.50;99.80;;;;;;5022057;28;20230;-87
2021/01/05 09:01:35;;;;;;;32.10;12.52;;;2.50;99.80;;;;;;5028408;28;20233;-88
2021/01/05 09:04:02;;;;;;;32.67;12.32;;;2.60;99.80;;;;;;5064848;28;20227;-88
2021/01/05 09:06:29;;;;;;;30.90;13.57;;;2.60;99.80;;;;;;5039058;28;20265;-87
2021/01/05 09:08:56;;;;;;;31.00;12.77;;;2.70;99.80;;;;;;5029946;28;20256;-88
2021/01/05 09:11:28;;;;;;;28.95;12.98;;;2.70;99.80;;;;;;5009323;28;20236;-89
2021/01/05 09:13:55;;;;;;;36.10;15.25;;;2.80;99.80;;;;;;5005628;28;20312;-88
2021/01/05 09:16:24;;;;;;;34.45;14.95;;;2.80;99.80;;;;;;5009976;28;20304;-88
2021/01/05 09:18:52;;;;;;;30.30;13.23;;;2.80;99.80;;;;;;5038415;28;20233;-88
2021/01/05 09:21:22;;;;;;;36.63;12.32;;;2.80;99.80;;;;;;5059349;28;20239;-87
2021/01/05 09:23:50;;;;;;;31.73;14.55;;;2.80;99.80;;;;;;5054378;28;20235;-88
2021/01/05 09:26:20;;;;;;;28.73;13.90;;;2.80;99.80;;;;;;5023239;28;20312;-87
2021/01/05 09:28:48;;;;;;;28.73;13.43;;;2.80;99.80;;;;;;5038645;28;20224;-89
2021/01/05 09:31:15;;;;;;;28.88;13.13;;;2.80;99.80;;;;;;5018157;28;20232;-87
2021/01/05 09:33:42;;;;;;;27.75;12.27;;;2.80;99.80;;;;;;5045309;28;20216;-88
2021/01/05 09:36:10;;;;;;;25.65;11.90;;;2.80;99.80;;;;;;5039165;28;20224;-88
2021/01/05 09:38:38;;;;;;;18.80;9.73;;;2.90;99.80;;;;;;5021630;28;20748;-88
2021/01/05 09:41:06;;;;;;;17.33;10.70;;;2.90;99.80;;;;;;5035117;28;20230;-88
2021/01/05 09:43:33;;;;;;;20.60;9.20;;;3.00;99.80;;;;;;5030704;28;20241;-88
2021/01/05 09:46:01;;;;;;;24.38;11.60;;;3.10;99.80;;;;;;5027657;28;20227;-87
2021/01/05 09:48:28;;;;;;;22.02;9.80;;;3.10;99.80;;;;;;5068303;28;20922;-87
2021/01/05 09:50:55;;;;;;;24.63;11.07;;;3.10;99.80;;;;;;5059397;28;20269;-88
2021/01/05 09:53:22;;;;;;;24.95;11.55;;;3.10;99.80;;;;;;5059724;28;20340;-87
2021/01/05 09:55:49;;;;;;;23.35;9.35;;;3.10;99.80;;;;;;5055765;28;20417;-87
2021/01/05 09:58:16;;;;;;;18.05;9.55;;;3.10;99.80;;;;;;5047328;28;20235;-88
2021/01/05 10:00:43;;;;;;;16.33;8.57;;;3.10;99.80;;;;;;5023352;28;20225;-87
2021/01/05 10:03:11;;;;;;;19.83;9.93;;;3.10;99.80;;;;;;5057053;28;20878;-88
2021/01/05 10:05:38;;;;;;;18.55;9.32;;;3.10;99.80;;;;;;5057035;28;20868;-87
2021/01/05 10:08:06;;;;;;;21.38;10.50;;;3.10;99.80;;;;;;5037593;28;20227;-87
2021/01/05 10:10:33;;;;;;;20.40;9.80;;;3.20;99.80;;;;;;5025248;28;20221;-87
2021/01/05 10:13:00;;;;;;;18.45;9.60;;;3.20;99.80;;;;;;5060226;28;20308;-87
2021/01/05 10:15:27;;;;;;;20.75;9.15;;;3.20;99.80;;;;;;5028585;28;20219;-87
2021/01/05 10:17:54;;;;;;;17.90;9.52;;;3.30;99.80;;;;;;5031653;28;20291;-87
2021/01/05 10:20:23;;;;;;;18.42;8.43;;;3.20;99.80;;;;;;5049458;28;20230;-86
2021/01/05 10:22:51;;;;;;;15.88;8.85;;;3.20;99.80;;;;;;5021381;28;20725;-87
2021/01/05 10:25:19;;;;;;;16.30;9.32;;;3.30;99.80;;;;;;5031232;28;20232;-87
2021/01/05 10:27:46;;;;;;;20.10;9.65;;;3.30;99.80;;;;;;5032372;28;20235;-87
2021/01/05 10:30:14;;;;;;;16.63;8.93;;;3.30;99.80;;;;;;5017399;28;20662;-87
2021/01/05 10:32:44;;;;;;;21.13;11.00;;;3.40;99.80;;;;;;5032369;28;20225;-87
2021/01/05 10:35:13;;;;;;;15.00;8.50;;;3.40;99.80;;;;;;5046209;28;20276;-86
2021/01/05 10:37:40;;;;;;;20.75;11.00;;;3.40;99.80;;;;;;5056514;28;20915;-87
2021/01/05 10:40:09;;;;;;;16.92;9.30;;;3.50;99.80;;;;;;5029284;28;20240;-87
2021/01/05 10:42:41;;;;;;;16.75;9.15;;;3.50;99.80;;;;;;5030035;28;20315;-86
2021/01/05 10:45:10;;;;;;;18.45;9.85;;;3.50;99.80;;;;;;5037315;28;20686;-88
2021/01/05 10:47:38;;;;;;;18.73;9.52;;;3.40;99.80;;;;;;5046305;28;20236;-87
2021/01/05 10:50:07;;;;;;;21.08;9.85;;;3.30;99.80;;;;;;5038115;28;20237;-87
2021/01/05 10:52:35;;;;;;;21.08;9.65;;;3.30;99.80;;;;;;5034689;28;20224;-87
2021/01/05 10:55:04;;;;;;;16.10;7.88;;;3.40;99.80;;;;;;5034823;28;20801;-87
2021/01/05 10:57:31;;;;;;;16.42;9.00;;;3.40;99.80;;;;;;5016119;28;20676;-87
2021/01/05 10:59:58;;;;;;;16.80;8.20;;;3.40;99.80;;;;;;5032339;28;20224;-88
2021/01/05 11:02:25;;;;;;;16.42;8.55;;;3.40;99.80;;;;;;5040964;28;20308;-86
2021/01/05 11:04:53;;;;;;;18.85;10.10;;;3.40;99.80;;;;;;5058934;28;20232;-86
2021/01/05 11:07:20;;;;;;;20.38;9.90;;;3.30;99.80;;;;;;5059523;28;20258;-87
2021/01/05 11:09:47;;;;;;;16.88;9.05;;;3.30;99.80;;;;;;5051670;28;20220;-87
2021/01/05 11:12:22;;;;;;;18.73;8.40;;;3.30;99.80;;;;;;5046778;28;20239;-87
2021/01/05 11:14:49;;;;;;;15.70;8.75;;;3.30;99.80;;;;;;5030370;28;21388;-87
2021/01/05 11:17:16;;;;;;;16.50;8.57;;;3.40;99.80;;;;;;5047711;28;20252;-87
2021/01/05 11:19:43;;;;;;;17.30;9.10;;;3.30;99.80;;;;;;5052234;28;20230;-87
2021/01/05 11:22:15;;;;;;;27.38;9.38;;;3.30;99.80;;;;;;5016717;28;21260;-87
2021/01/05 11:24:42;;;;;;;16.67;8.50;;;3.40;99.80;;;;;;5003028;28;20236;-86
2021/01/05 11:27:10;;;;;;;18.90;9.25;;;3.40;99.80;;;;;;5038456;28;20228;-87
2021/01/05 11:29:38;;;;;;;16.35;8.50;;;3.50;99.80;;;;;;5025222;28;20239;-86
2021/01/05 11:32:07;;;;;;;17.05;8.18;;;3.50;99.80;;;;;;5041458;28;20224;-87
2021/01/05 11:34:35;;;;;;;23.08;7.93;;;3.50;99.80;;;;;;5055485;28;20300;-87
2021/01/05 11:37:02;;;;;;;13.98;7.78;;;3.50;99.80;;;;;;5049078;28;21447;-87
2021/01/05 11:39:29;;;;;;;19.75;9.05;;;3.50;99.80;;;;;;5038891;28;20239;-87
2021/01/05 11:42:01;;;;;;;16.55;7.82;;;3.50;99.80;;;;;;5051294;28;20216;-86
2021/01/05 11:44:28;;;;;;;15.40;7.75;;;3.60;99.80;;;;;;5036582;28;21517;-87
2021/01/05 11:46:56;;;;;;;15.77;8.77;;;3.70;99.80;;;;;;5035934;28;20232;-87
2021/01/05 11:49:24;;;;;;;14.68;7.72;;;3.90;99.80;;;;;;5059357;28;20239;-86
2021/01/05 11:51:53;;;;;;;17.30;7.82;;;4.10;99.80;;;;;;5047958;28;21047;-87
2021/01/05 11:54:21;;;;;;;15.63;8.05;;;4.30;99.80;;;;;;5021918;28;20697;-86
2021/01/05 11:56:48;;;;;;;21.90;8.75;;;4.60;99.80;;;;;;5002469;28;20231;-87
2021/01/05 11:59:15;;;;;;;14.82;8.10;;;4.50;99.80;;;;;;4998586;28;20266;-87
2021/01/05 12:01:42;;;;;;;21.17;9.60;;;4.40;99.80;;;;;;5017886;28;20239;-87
2021/01/05 12:04:12;;;;;;;18.40;9.10;;;4.20;99.80;;;;;;5046094;28;20616;-87
2021/01/05 12:06:39;;;;;;;18.25;9.88;;;4.30;99.80;;;;;;5059112;28;20308;-87
2021/01/05 12:09:08;;;;;;;17.88;9.15;;;4.30;99.80;;;;;;5065733;28;20291;-87
2021/01/05 12:11:36;;;;;;;20.77;9.85;;;4.30;99.80;;;;;;5059919;28;20537;-87
2021/01/05 12:14:05;;;;;;;16.95;9.60;;;4.30;99.80;;;;;;5044668;28;20225;-87
2021/01/05 12:16:43;;;;;;;17.38;9.90;;;4.20;99.80;;;;;;5015358;28;20232;-86
2021/01/05 12:19:14;;;;;;;15.55;9.27;;;4.20;99.80;;;;;;5055207;28;20686;-87
2021/01/05 12:21:42;;;;;;;17.33;9.63;;;4.10;99.80;;;;;;5055168;28;20235;-87
2021/01/05 12:24:15;;;;;;;17.52;9.77;;;4.00;99.80;;;;;;5036696;28;20326;-87
2021/01/05 12:26:43;;;;;;;20.33;10.98;;;3.90;99.80;;;;;;5027331;28;20316;-87
2021/01/05 12:29:12;;;;;;;19.00;8.70;;;3.80;99.80;;;;;;5024835;28;20234;-86
2021/01/05 12:31:41;;;;;;;19.60;10.07;;;3.90;99.80;;;;;;5047983;28;20231;-87
2021/01/05 12:34:09;;;;;;;20.33;11.00;;;4.00;99.80;;;;;;5052979;28;20702;-87
2021/01/05 12:36:39;;;;;;;20.13;10.07;;;4.10;99.80;;;;;;5023716;28;20265;-87
2021/01/05 12:39:08;;;;;;;23.42;9.27;;;4.20;99.80;;;;;;5046089;28;20376;-87
2021/01/05 12:41:39;;;;;;;20.25;9.55;;;4.40;99.80;;;;;;5048280;28;20242;-88
2021/01/05 12:44:09;;;;;;;18.08;9.73;;;4.50;99.80;;;;;;5031827;28;20398;-88
2021/01/05 12:46:38;;;;;;;20.73;9.13;;;4.40;99.80;;;;;;5052719;28;20724;-87
2021/01/05 12:49:06;;;;;;;14.63;8.27;;;4.60;99.80;;;;;;5057406;28;20228;-88
2021/01/05 12:51:37;;;;;;;12.68;7.07;;;5.10;99.80;;;;;;5066031;28;20224;-88
2021/01/05 12:54:05;;;;;;;18.17;9.82;;;5.30;99.80;;;;;;5056245;28;20226;-88
2021/01/05 12:56:33;;;;;;;15.80;7.85;;;5.20;99.80;;;;;;5052533;28;20219;-87
2021/01/05 12:59:00;;;;;;;14.13;7.88;;;4.90;99.80;;;;;;5055697;28;20231;-87
2021/01/05 13:01:27;;;;;;;20.13;8.10;;;4.80;99.80;;;;;;5017375;28;20239;-88